Time;durP1;ratioP1;P1;durP2;ratioP2;P2;SDS_P1;SDS_P2;PMS_P1;PMS_P2;Temp;Humidity;BMP_temperature;BMP_pressure;BME280_temperature;BME280_humidity;BME280_pressure;Samples;Min_cycle;Max_cycle;Signal;HPM_P1;HPM_P2
2022/05/23 00:02:33;;;;;;;111.53;105.72;;;;;;;10.20;100.00;100676.00;5034473;28;20056;-79
2022/05/23 00:05:01;;;;;;;125.22;118.68;;;;;;;10.22;100.00;100678.44;5038144;28;20527;-78
2022/05/23 00:07:38;;;;;;;162.77;154.15;;;;;;;10.20;100.00;100670.56;5040551;28;20052;-80
2022/05/23 00:10:13;;;;;;;176.18;166.88;;;;;;;10.19;100.00;100671.66;5049262;28;20044;-80
2022/05/23 00:12:46;;;;;;;178.07;168.65;;;;;;;10.11;100.00;100666.78;5048350;28;20056;-77
2022/05/23 00:15:21;;;;;;;181.63;172.00;;;;;;;10.06;100.00;100660.53;5030094;28;20076;-78
2022/05/23 00:17:55;;;;;;;211.85;200.40;;;;;;;10.08;100.00;100671.94;5039213;28;20041;-78
2022/05/23 00:20:28;;;;;;;226.27;214.05;;;;;;;10.00;100.00;100665.19;5045749;28;20052;-78
2022/05/23 00:23:03;;;;;;;240.52;227.35;;;;;;;9.98;100.00;100664.63;5044114;28;20072;-79
2022/05/23 00:25:36;;;;;;;276.38;261.25;;;;;;;9.96;100.00;100655.97;5039633;28;20060;-79
2022/05/23 00:28:05;;;;;;;356.38;335.83;;;;;;;9.97;100.00;100663.84;5041719;28;20052;-78
2022/05/23 00:30:33;;;;;;;458.02;430.05;;;;;;;9.91;100.00;100664.91;5049145;28;20041;-78
2022/05/23 00:35:58;;;;;;;761.30;709.17;;;;;;;9.89;100.00;100650.81;5028611;28;20053;-79
2022/05/23 00:38:33;;;;;;;1057.05;977.55;;;;;;;9.86;100.00;100654.88;5040904;28;20489;-78
2022/05/23 00:44:05;;;;;;;1105.10;999.90;;;;;;;9.78;100.00;100652.72;5042042;28;20080;-78
2022/05/23 00:46:50;;;;;;;1131.95;999.90;;;;;;;9.77;100.00;100658.44;5022012;28;20060;-78
2022/05/23 00:49:26;;;;;;;1091.30;999.13;;;;;;;9.72;100.00;100651.09;5042151;28;20033;-79
2022/05/23 00:52:03;;;;;;;1137.78;999.90;;;;;;;9.75;100.00;100658.72;5032244;28;20056;-79
2022/05/23 00:54:41;;;;;;;1177.78;999.90;;;;;;;9.67;100.00;100657.38;5025275;28;20053;-78
2022/05/23 00:57:24;;;;;;;1189.57;999.90;;;;;;;9.66;100.00;100655.72;5046712;28;20045;-78
2022/05/23 00:59:59;;;;;;;1193.38;999.90;;;;;;;9.63;100.00;100655.47;5038778;28;20051;-77
2022/05/23 01:02:33;;;;;;;1210.45;999.90;;;;;;;9.59;100.00;100659.81;5043241;28;20045;-77
2022/05/23 01:05:09;;;;;;;1214.95;999.90;;;;;;;9.53;100.00;100650.88;5027126;28;20059;-78
2022/05/23 01:07:42;;;;;;;1217.30;999.90;;;;;;;9.53;100.00;100643.53;5029417;28;20056;-78
2022/05/23 01:10:17;;;;;;;1217.38;999.90;;;;;;;9.53;100.00;100645.44;5035831;28;20053;-77
2022/05/23 01:12:49;;;;;;;1224.18;999.90;;;;;;;9.54;100.00;100647.03;5046575;28;20048;-77
2022/05/23 01:15:24;;;;;;;1229.18;999.90;;;;;;;9.47;100.00;100635.66;5029980;28;20049;-79
2022/05/23 01:17:58;;;;;;;1229.60;999.90;;;;;;;9.41;100.00;100634.03;5028693;28;20423;-77
2022/05/23 01:20:31;;;;;;;1241.05;999.90;;;;;;;9.43;100.00;100635.41;5038184;28;20063;-78
2022/05/23 01:23:25;;;;;;;1244.47;999.90;;;;;;;9.41;100.00;100637.56;5033175;28;20060;-78
2022/05/23 01:26:22;;;;;;;;;;;;;;;9.39;100.00;100631.59;5021128;28;20053;-78
2022/05/23 01:28:58;;;;;;;1233.63;999.90;;;;;;;9.32;100.00;100629.16;5029816;28;19925;-80
2022/05/23 01:31:55;;;;;;;1253.50;999.90;;;;;;;9.29;100.00;100629.69;5043587;28;20164;-78
2022/05/23 01:34:28;;;;;;;1258.05;999.90;;;;;;;9.23;100.00;100628.06;5027618;28;20054;-80
2022/05/23 01:37:01;;;;;;;1273.18;999.90;;;;;;;9.19;100.00;100611.50;5038177;28;20502;-78
2022/05/23 01:39:52;;;;;;;1285.38;999.90;;;;;;;9.19;100.00;100621.56;5042087;28;20071;-79
2022/05/23 01:42:39;;;;;;;1292.90;999.90;;;;;;;9.14;100.00;100621.53;5027660;28;20407;-80
2022/05/23 01:45:09;;;;;;;1299.50;999.90;;;;;;;9.14;100.00;100611.50;5024551;28;20076;-79
2022/05/23 01:47:37;;;;;;;1311.82;999.90;;;;;;;9.17;100.00;100616.41;5031415;28;20049;-79
2022/05/23 01:50:11;;;;;;;1323.53;999.90;;;;;;;9.17;100.00;100616.41;5022459;28;20053;-79
2022/05/23 01:53:01;;;;;;;1335.13;999.90;;;;;;;9.05;100.00;100602.28;5023210;28;20820;-80
2022/05/23 01:55:44;;;;;;;1338.85;999.90;;;;;;;9.06;100.00;100619.38;5013581;28;20048;-79
2022/05/23 02:01:15;;;;;;;1358.13;999.90;;;;;;;9.03;100.00;100604.44;5026297;28;20068;-80
2022/05/23 02:03:55;;;;;;;1366.53;999.90;;;;;;;8.97;100.00;100600.91;5034515;28;20058;-80
2022/05/23 02:06:40;;;;;;;1379.10;999.90;;;;;;;8.89;100.00;100590.59;5044387;28;20056;-80
2022/05/23 02:09:27;;;;;;;1400.07;999.90;;;;;;;8.98;100.00;100585.47;5030579;28;20057;-79
2022/05/23 02:12:24;;;;;;;1455.25;999.90;;;;;;;8.96;100.00;100585.72;5030622;28;20048;-79
2022/05/23 02:15:02;;;;;;;1514.57;999.90;;;;;;;9.00;100.00;100591.41;5031890;28;20049;-79
2022/05/23 02:18:02;;;;;;;1544.65;999.90;;;;;;;8.96;100.00;100593.03;5043074;28;20784;-79
2022/05/23 02:20:36;;;;;;;1591.90;999.90;;;;;;;8.97;100.00;100587.34;5044546;28;20049;-79
2022/05/23 02:23:09;;;;;;;1614.57;999.90;;;;;;;8.90;100.00;100586.78;5031131;28;20053;-80
2022/05/23 02:25:42;;;;;;;1622.55;999.90;;;;;;;8.89;100.00;100582.44;5029570;28;20064;-79
2022/05/23 02:28:54;;;;;;;1613.90;999.90;;;;;;;8.80;100.00;100568.63;5044486;28;20493;-78
2022/05/23 02:31:30;;;;;;;1629.80;999.90;;;;;;;8.77;100.00;100571.88;5030379;28;20509;-79
2022/05/23 02:34:10;;;;;;;1652.63;999.90;;;;;;;8.75;100.00;100568.59;5032979;28;20506;-78
2022/05/23 02:36:48;;;;;;;1652.75;999.90;;;;;;;8.72;100.00;100565.63;5044212;28;20057;-78
2022/05/23 02:39:33;;;;;;;1647.60;999.90;;;;;;;8.64;100.00;100558.84;5030410;28;20048;-79
2022/05/23 02:42:08;;;;;;;1658.32;999.90;;;;;;;8.65;100.00;100561.28;5031356;28;20061;-79
2022/05/23 02:44:42;;;;;;;1691.43;999.90;;;;;;;8.63;100.00;100555.31;5047258;28;20063;-80
2022/05/23 02:47:24;;;;;;;1721.47;999.90;;;;;;;8.63;100.00;100554.47;5042028;28;20466;-81
2022/05/23 02:50:02;;;;;;;1743.18;999.90;;;;;;;8.54;100.00;100550.69;5028600;28;20053;-79
2022/05/23 02:52:44;;;;;;;1748.13;999.90;;;;;;;8.52;100.00;100531.97;5031439;28;20445;-80
2022/05/23 02:55:46;;;;;;;1763.05;999.90;;;;;;;8.51;100.00;100539.28;5034028;28;20075;-79
2022/05/23 02:58:15;;;;;;;1800.30;999.90;;;;;;;8.56;100.00;100543.91;5028604;28;20057;-79
2022/05/23 03:00:48;;;;;;;1833.53;999.90;;;;;;;8.55;100.00;100538.75;5027424;28;20050;-79
2022/05/23 03:03:22;;;;;;;1857.20;999.90;;;;;;;8.45;100.00;100542.25;5023938;28;20053;-79
2022/05/23 03:05:59;;;;;;;1877.28;999.90;;;;;;;8.48;100.00;100537.13;5025805;28;20056;-79
2022/05/23 03:08:35;;;;;;;1900.10;999.90;;;;;;;8.48;100.00;100534.41;5031814;28;20044;-79
2022/05/23 03:11:09;;;;;;;1915.70;999.90;;;;;;;8.44;100.00;100535.19;5031856;28;20489;-78
2022/05/23 03:13:42;;;;;;;1926.00;999.90;;;;;;;8.43;100.00;100538.97;5032542;28;20056;-79
2022/05/23 03:16:16;;;;;;;1941.65;999.90;;;;;;;8.38;100.00;100536.25;5032518;28;20515;-79
2022/05/23 03:18:50;;;;;;;1949.65;999.90;;;;;;;8.34;100.00;100549.53;5019559;28;20064;-79
2022/05/23 03:26:59;;;;;;;1982.40;999.90;;;;;;;8.37;100.00;100538.16;5029752;28;20060;-80
2022/05/23 03:29:39;;;;;;;1998.47;999.90;;;;;;;8.34;100.00;100528.66;5032174;28;20067;-79
2022/05/23 03:32:13;;;;;;;1998.07;999.90;;;;;;;8.36;100.00;100531.09;5029077;28;20065;-80
2022/05/23 03:34:48;;;;;;;1999.90;999.90;;;;;;;8.38;100.00;100531.63;5048488;28;20041;-80
2022/05/23 03:37:25;;;;;;;1999.90;999.90;;;;;;;8.39;100.00;100533.28;5045560;28;20044;-81
2022/05/23 03:40:08;;;;;;;1999.90;999.90;;;;;;;8.42;100.00;100540.84;5030874;28;20052;-80
2022/05/23 03:42:47;;;;;;;1999.90;999.90;;;;;;;8.32;100.00;100533.53;5028425;28;20048;-79
2022/05/23 03:45:21;;;;;;;1999.90;999.90;;;;;;;8.40;100.00;100539.53;5044374;28;20521;-78
2022/05/23 03:47:56;;;;;;;1999.90;999.90;;;;;;;8.41;100.00;100535.72;5032141;28;20076;-79
2022/05/23 03:50:32;;;;;;;1999.90;999.90;;;;;;;8.37;100.00;100524.59;5044435;28;20052;-79
2022/05/23 03:53:01;;;;;;;1999.90;999.90;;;;;;;8.43;100.00;100536.28;5044467;28;20053;-78
2022/05/23 03:55:39;;;;;;;1999.90;999.90;;;;;;;8.44;100.00;100530.56;5032670;28;20053;-80
2022/05/23 03:58:18;;;;;;;1999.90;999.90;;;;;;;8.47;100.00;100537.38;5030994;28;20057;-80
2022/05/23 04:01:08;;;;;;;1999.90;999.90;;;;;;;8.47;100.00;100530.06;5040877;28;20427;-80
2022/05/23 04:03:43;;;;;;;1749.80;999.90;;;;;;;8.55;100.00;100536.84;5023843;28;20889;-79
2022/05/23 04:06:18;;;;;;;1402.45;999.90;;;;;;;8.55;100.00;100527.88;5022424;28;20436;-80
2022/05/23 04:09:06;;;;;;;1263.07;999.90;;;;;;;8.67;100.00;100518.44;5022640;28;20429;-79
2022/05/23 04:11:45;;;;;;;194.20;183.77;;;;;;;8.66;100.00;100505.13;5025267;28;20412;-79
2022/05/23 04:14:16;;;;;;;54.60;51.58;;;;;;;8.68;100.00;100522.75;5029908;28;20440;-79
2022/05/23 04:16:49;;;;;;;30.00;28.23;;;;;;;8.75;100.00;100525.19;5047061;28;20432;-81
2022/05/23 04:19:23;;;;;;;17.08;15.98;;;;;;;8.79;100.00;100528.19;5039724;28;20431;-80
2022/05/23 04:22:16;;;;;;;11.25;10.45;;;;;;;8.81;100.00;100532.25;5031147;28;20424;-79
2022/05/23 04:24:55;;;;;;;9.63;8.93;;;;;;;8.85;100.00;100524.38;5031785;28;20429;-78
2022/05/23 04:27:29;;;;;;;8.50;7.80;;;;;;;8.88;100.00;100523.03;5028122;28;20436;-81
2022/05/23 04:30:02;;;;;;;7.82;7.22;;;;;;;8.90;100.00;100516.22;5025826;28;20899;-79
2022/05/23 04:35:38;;;;;;;7.50;6.90;;;;;;;9.11;100.00;100514.31;5023564;28;20432;-78
2022/05/23 04:38:13;;;;;;;7.10;6.47;;;;;;;9.12;100.00;100515.94;5030975;28;20421;-78
2022/05/23 04:40:48;;;;;;;6.90;6.30;;;;;;;9.24;100.00;100506.69;5041064;28;20887;-80
2022/05/23 04:43:17;;;;;;;5.97;5.53;;;;;;;9.36;100.00;100504.47;5020712;28;20425;-80
2022/05/23 04:45:50;;;;;;;6.10;5.60;;;;;;;9.50;100.00;100502.00;5044830;28;20421;-79
2022/05/23 04:51:28;;;;;;;5.93;5.43;;;;;;;9.84;100.00;100493.16;5045347;28;20886;-80
2022/05/23 04:54:03;;;;;;;4.53;4.13;;;;;;;9.94;100.00;100492.31;5046752;28;20425;-80
2022/05/23 04:56:37;;;;;;;4.50;4.10;;;;;;;10.13;100.00;100485.09;5046534;28;20428;-80
2022/05/23 04:59:16;;;;;;;3.97;3.67;;;;;;;10.36;100.00;100480.91;5020926;28;20427;-80
2022/05/23 05:01:49;;;;;;;3.47;3.17;;;;;;;10.46;100.00;100477.31;5043917;28;20422;-80
2022/05/23 05:04:22;;;;;;;3.00;2.63;;;;;;;10.57;100.00;100467.16;5021649;28;20434;-81
2022/05/23 05:06:51;;;;;;;3.50;2.88;;;;;;;11.43;100.00;100468.47;5025407;28;20430;-80
2022/05/23 05:09:26;;;;;;;2.53;2.33;;;;;;;13.37;100.00;100458.38;5026078;28;20468;-81
2022/05/23 05:12:06;;;;;;;2.30;1.70;;;;;;;15.14;100.00;100445.75;5029130;28;20759;-81
2022/05/23 05:14:42;;;;;;;2.00;1.40;;;;;;;16.14;100.00;100441.47;5027872;28;20429;-81
2022/05/23 05:17:18;;;;;;;2.23;1.27;;;;;;;16.71;100.00;100428.63;5034393;28;20978;-80
2022/05/23 05:19:51;;;;;;;2.10;1.30;;;;;;;16.87;100.00;100426.13;5030536;28;20432;-80
2022/05/23 05:22:43;;;;;;;1.75;1.10;;;;;;;17.48;100.00;100425.88;5047976;28;20421;-81
2022/05/23 05:25:34;;;;;;;2.20;1.20;;;;;;;17.48;100.00;100416.81;5027345;28;20429;-81
2022/05/23 05:28:09;;;;;;;1.75;1.10;;;;;;;17.83;100.00;100408.34;5028231;28;21015;-81
2022/05/23 05:30:47;;;;;;;1.85;1.10;;;;;;;17.78;100.00;100405.78;5018675;28;20429;-80
2022/05/23 05:33:29;;;;;;;2.17;1.10;;;;;;;17.94;100.00;100390.28;5023977;28;20430;-83
2022/05/23 05:36:02;;;;;;;2.63;1.10;;;;;;;16.95;100.00;100402.53;5041830;28;21007;-81
2022/05/23 05:38:41;;;;;;;2.50;1.00;;;;;;;16.37;100.00;100400.09;5022830;28;20433;-80
2022/05/23 05:41:21;;;;;;;1.90;1.10;;;;;;;15.61;100.00;100399.41;5041317;28;20429;-80
2022/05/23 05:44:01;;;;;;;1.95;1.00;;;;;;;14.71;100.00;100394.31;5027492;28;20434;-80
2022/05/23 05:46:40;;;;;;;2.13;1.10;;;;;;;14.91;100.00;100385.53;5022985;28;20483;-82
2022/05/23 05:49:24;;;;;;;1.30;1.00;;;;;;;14.81;100.00;100394.03;5027965;28;20425;-84
2022/05/23 05:52:10;;;;;;;2.73;1.20;;;;;;;14.79;100.00;100390.81;5021195;28;20497;-82
2022/05/23 05:54:49;;;;;;;2.47;1.15;;;;;;;14.57;100.00;100367.78;5026810;28;21020;-82
2022/05/23 05:57:19;;;;;;;2.70;1.20;;;;;;;14.58;100.00;100371.31;5033134;28;20428;-83
2022/05/23 05:59:55;;;;;;;2.45;1.08;;;;;;;14.49;100.00;100384.19;5028305;28;20433;-84
2022/05/23 06:02:28;;;;;;;2.50;1.20;;;;;;;14.63;100.00;100387.66;5028096;28;20906;-85
2022/05/23 06:05:01;;;;;;;2.58;1.10;;;;;;;14.59;100.00;100376.50;5027029;28;20435;-82
2022/05/23 06:13:33;;;;;;;2.33;1.23;;;;;;;14.40;100.00;100363.03;5014393;28;20759;-83
2022/05/23 06:16:11;;;;;;;2.50;1.20;;;;;;;14.54;100.00;100362.97;5029722;28;20421;-82
2022/05/23 06:18:54;;;;;;;2.38;1.10;;;;;;;14.58;100.00;100358.47;5045733;28;20425;-85
2022/05/23 06:21:23;;;;;;;3.20;1.20;;;;;;;14.51;100.00;100355.34;5035005;28;20425;-82
2022/05/23 06:23:57;;;;;;;2.97;1.30;;;;;;;14.43;100.00;100348.72;5027020;28;20427;-83
2022/05/23 06:26:39;;;;;;;2.23;1.10;;;;;;;14.69;100.00;100341.78;5029598;28;20924;-83
2022/05/23 06:29:31;;;;;;;2.20;1.10;;;;;;;14.70;100.00;100333.25;5046079;28;20789;-82
2022/05/23 06:32:40;;;;;;;2.47;1.10;;;;;;;14.58;100.00;100336.56;5029178;28;20425;-81
2022/05/23 06:35:18;;;;;;;1.80;1.10;;;;;;;14.69;100.00;100326.13;5027535;28;20929;-82
2022/05/23 06:37:49;;;;;;;2.17;1.17;;;;;;;14.76;100.00;100331.16;5022120;28;20430;-82
2022/05/23 06:40:36;;;;;;;2.30;1.10;;;;;;;14.92;100.00;100329.59;5033029;28;20436;-82
2022/05/23 06:43:23;;;;;;;3.05;1.10;;;;;;;15.07;100.00;100311.91;5045305;28;20425;-86
2022/05/23 06:46:16;;;;;;;2.03;1.00;;;;;;;15.26;100.00;100313.56;5052411;28;21109;-85
2022/05/23 06:49:02;;;;;;;2.50;1.10;;;;;;;15.49;100.00;100311.47;5048054;28;20781;-82
2022/05/23 06:51:49;;;;;;;1.60;0.93;;;;;;;15.63;100.00;100325.03;5046363;28;20405;-85
2022/05/23 06:54:33;;;;;;;2.50;1.00;;;;;;;15.78;100.00;100299.06;5050823;28;20420;-87
2022/05/23 06:57:10;;;;;;;1.77;1.00;;;;;;;15.63;100.00;100314.06;5030479;28;20439;-83
2022/05/23 06:59:43;;;;;;;1.60;0.98;;;;;;;15.60;100.00;100306.50;5024702;28;21098;-81
2022/05/23 07:02:14;;;;;;;2.05;1.05;;;;;;;15.77;100.00;100302.91;5031718;28;20421;-85
2022/05/23 07:14:21;;;;;;;1.67;0.88;;;;;;;16.29;100.00;100283.63;5036481;28;20418;-83
2022/05/23 07:16:59;;;;;;;1.60;0.93;;;;;;;16.36;100.00;100277.63;5029388;28;20413;-84
2022/05/23 07:19:55;;;;;;;2.10;1.00;;;;;;;16.30;100.00;100287.19;5046340;28;20422;-86
2022/05/23 07:22:28;;;;;;;1.58;0.90;;;;;;;16.42;100.00;100281.81;5033930;28;20434;-86
2022/05/23 07:25:02;;;;;;;1.50;0.90;;;;;;;16.54;100.00;100285.81;5034108;28;21166;-87
2022/05/23 07:27:31;;;;;;;1.67;0.93;;;;;;;16.72;100.00;100281.84;5015628;28;20430;-87
2022/05/23 07:30:05;;;;;;;3.20;1.05;;;;;;;16.69;100.00;100274.25;5031580;28;20432;-83
2022/05/23 07:32:39;;;;;;;1.52;0.90;;;;;;;16.74;100.00;100276.03;5020583;28;20913;-84
2022/05/23 07:35:13;;;;;;;1.57;0.97;;;;;;;16.69;100.00;100271.50;5031008;28;20441;-87
2022/05/23 07:37:42;;;;;;;1.67;0.90;;;;;;;16.62;100.00;100277.53;5041580;28;20425;-87
2022/05/23 07:40:14;;;;;;;2.15;1.02;;;;;;;16.75;100.00;100272.94;5025844;28;20786;-83
2022/05/23 07:43:02;;;;;;;1.38;0.98;;;;;;;16.93;100.00;100261.88;5041132;28;20429;-84
2022/05/23 07:45:31;;;;;;;2.35;1.00;;;;;;;17.03;100.00;100268.91;5007610;28;20449;-90
2022/05/23 07:48:05;;;;;;;1.90;0.90;;;;;;;17.28;100.00;100262.44;5039296;28;20417;-81
2022/05/23 07:50:45;;;;;;;1.85;0.98;;;;;;;17.31;100.00;100258.22;5019715;28;20436;-82
2022/05/23 08:01:50;;;;;;;1.60;0.90;;;;;;;17.65;100.00;100239.81;5019656;28;20432;-81
2022/05/23 08:04:24;;;;;;;2.35;0.98;;;;;;;17.94;100.00;100238.06;5014177;28;20428;-81
2022/05/23 08:06:56;;;;;;;2.63;1.10;;;;;;;18.06;100.00;100226.28;5009103;28;20437;-81
2022/05/23 08:09:30;;;;;;;1.95;1.00;;;;;;;18.03;100.00;100225.00;5029414;28;20424;-82
2022/05/23 08:12:07;;;;;;;1.25;0.90;;;;;;;18.14;100.00;100230.88;5005707;28;20433;-83
2022/05/23 08:14:36;;;;;;;2.55;0.90;;;;;;;18.32;100.00;100226.75;5023307;28;21072;-83
2022/05/23 08:17:18;;;;;;;2.50;1.10;;;;;;;18.26;100.00;100221.84;5026814;28;20433;-85
2022/05/23 08:19:48;;;;;;;1.88;0.93;;;;;;;18.25;100.00;100226.53;5013905;28;20416;-82
2022/05/23 08:22:29;;;;;;;1.50;0.80;;;;;;;18.47;100.00;100217.00;5031067;28;20441;-82
2022/05/23 08:25:16;;;;;;;2.13;1.00;;;;;;;18.52;100.00;100227.81;5026743;28;20520;-81
2022/05/23 08:27:56;;;;;;;1.13;0.80;;;;;;;18.60;100.00;100217.00;5018703;28;20477;-80
2022/05/23 08:30:29;;;;;;;2.40;0.80;;;;;;;18.88;100.00;100205.28;5003697;28;20456;-82
2022/05/23 08:33:13;;;;;;;1.80;0.98;;;;;;;19.04;100.00;100197.88;5023071;28;20440;-82
2022/05/23 08:35:48;;;;;;;1.40;0.80;;;;;;;18.81;100.00;100198.38;5002076;28;20444;-81
2022/05/23 08:38:25;;;;;;;2.00;0.90;;;;;;;18.56;100.00;100200.38;5015140;28;20964;-81
2022/05/23 08:41:11;;;;;;;1.13;0.85;;;;;;;18.56;100.00;100191.28;5033233;28;20467;-81
2022/05/23 08:43:52;;;;;;;1.80;0.90;;;;;;;18.91;100.00;100186.09;5016631;28;20433;-81
2022/05/23 08:46:31;;;;;;;2.50;0.90;;;;;;;18.88;100.00;100186.81;5028178;28;20436;-86
2022/05/23 08:49:08;;;;;;;3.08;1.05;;;;;;;18.57;100.00;100187.38;5012720;28;20440;-81
2022/05/23 08:51:58;;;;;;;2.53;1.00;;;;;;;18.55;100.00;100189.69;5028188;28;20437;-82
2022/05/23 08:54:43;;;;;;;1.83;0.90;;;;;;;18.59;100.00;100180.38;5020052;28;20429;-81
2022/05/23 08:58:00;;;;;;;3.03;1.00;;;;;;;19.08;100.00;100184.22;5015011;28;20437;-83
2022/05/23 09:00:38;;;;;;;2.05;0.98;;;;;;;19.08;100.00;100185.00;5013596;28;21118;-82
2022/05/23 09:03:13;;;;;;;2.00;0.90;;;;;;;19.14;100.00;100163.50;5006668;28;20437;-81
2022/05/23 09:05:54;;;;;;;1.88;0.90;;;;;;;18.82;100.00;100177.94;5018704;28;20433;-82
2022/05/23 09:08:29;;;;;;;2.70;0.95;;;;;;;18.82;100.00;100166.91;5019389;28;20432;-86
2022/05/23 09:11:09;;;;;;;1.80;1.00;;;;;;;19.06;100.00;100173.53;5033143;28;20425;-81
2022/05/23 09:13:44;;;;;;;2.45;1.05;;;;;;;19.05;96.49;100177.44;5011349;28;20446;-82
2022/05/23 09:16:17;;;;;;;2.33;1.05;;;;;;;19.08;100.00;100171.22;5020574;28;20429;-83
2022/05/23 09:18:56;;;;;;;2.22;1.10;;;;;;;19.72;100.00;100165.88;5019982;28;20425;-82
2022/05/23 09:24:18;;;;;;;2.77;1.23;;;;;;;20.28;100.00;100164.13;5024947;28;20436;-83
2022/05/23 09:27:00;;;;;;;1.85;1.00;;;;;;;20.28;100.00;100144.78;5010216;28;20436;-81
2022/05/23 09:29:28;;;;;;;3.10;1.10;;;;;;;20.09;100.00;100148.25;5015189;28;20436;-79
2022/05/23 09:32:08;;;;;;;2.38;1.08;;;;;;;20.24;100.00;100147.44;5001225;28;20460;-81
2022/05/23 09:34:47;;;;;;;3.53;1.10;;;;;;;20.23;94.63;100143.06;5020157;28;20433;-82
2022/05/23 09:37:22;;;;;;;1.85;1.00;;;;;;;20.19;93.42;100145.75;5022969;28;20425;-83
2022/05/23 09:39:58;;;;;;;2.85;1.10;;;;;;;20.20;100.00;100132.75;5022211;28;20425;-84
2022/05/23 09:48:18;;;;;;;2.25;1.20;;;;;;;20.27;100.00;100121.84;5029850;28;20504;-81
2022/05/23 09:50:56;;;;;;;1.95;1.15;;;;;;;20.21;100.00;100120.53;5019422;28;20436;-82
2022/05/23 09:53:34;;;;;;;2.72;1.20;;;;;;;20.33;100.00;100103.84;5018138;28;20432;-81
2022/05/23 09:56:29;;;;;;;2.35;1.13;;;;;;;20.41;100.00;100092.94;5021595;28;20525;-82
2022/05/23 09:59:07;;;;;;;3.10;1.05;;;;;;;20.35;100.00;100106.25;5007714;28;22061;-82
2022/05/23 10:01:43;;;;;;;3.33;1.30;;;;;;;20.46;100.00;100089.91;5003464;28;20433;-82
2022/05/23 10:04:22;;;;;;;2.22;1.20;;;;;;;20.49;98.01;100080.88;5004847;28;20444;-80
2022/05/23 10:06:56;;;;;;;3.17;1.20;;;;;;;20.55;100.00;100073.91;5019572;28;20433;-80
2022/05/23 10:09:33;;;;;;;2.28;1.10;;;;;;;20.62;92.48;100079.59;5000262;28;20449;-82
2022/05/23 10:12:37;;;;;;;3.45;1.00;;;;;;;20.50;99.30;100077.75;5010621;28;20433;-80
2022/05/23 10:15:14;;;;;;;2.20;1.10;;;;;;;20.41;89.96;100073.59;5024338;28;20436;-80
2022/05/23 10:18:00;;;;;;;2.50;1.20;;;;;;;20.42;100.00;100064.16;5016066;28;21170;-81
2022/05/23 10:20:31;;;;;;;3.22;1.10;;;;;;;20.48;100.00;100057.97;5002011;28;20437;-81
2022/05/23 10:23:08;;;;;;;2.78;1.40;;;;;;;20.38;100.00;100062.13;5021837;28;20437;-81
2022/05/23 10:25:48;;;;;;;2.78;1.20;;;;;;;20.41;98.87;100049.53;5020124;28;20428;-80
2022/05/23 10:28:27;;;;;;;2.13;1.10;;;;;;;20.53;91.02;100048.59;5021874;28;20428;-82
2022/05/23 10:31:06;;;;;;;2.17;1.10;;;;;;;20.46;84.38;100037.38;5004424;28;20433;-81
2022/05/23 10:33:36;;;;;;;2.53;1.20;;;;;;;20.33;80.91;100039.50;5014243;28;20421;-82
2022/05/23 10:36:15;;;;;;;2.80;1.30;;;;;;;20.50;90.08;100036.28;5021748;28;20441;-81
2022/05/23 10:44:54;;;;;;;2.05;1.02;;;;;;;20.77;87.09;100021.84;5019915;28;21345;-81
2022/05/23 10:47:52;;;;;;;2.38;1.20;;;;;;;20.98;83.77;100032.53;5021066;28;20425;-80
2022/05/23 10:50:34;;;;;;;3.30;1.40;;;;;;;21.18;78.99;100022.22;5018822;28;20430;-81
2022/05/23 10:53:14;;;;;;;1.83;1.23;;;;;;;21.22;91.14;100021.09;5007805;28;20805;-84
2022/05/23 10:55:56;;;;;;;3.35;1.40;;;;;;;21.28;85.28;100020.78;5020593;28;20429;-81
2022/05/23 10:58:36;;;;;;;3.25;1.30;;;;;;;21.09;83.12;100019.69;5018249;28;20441;-81
2022/05/23 11:01:28;;;;;;;3.23;1.40;;;;;;;21.22;84.31;100026.63;5017469;28;20446;-81
2022/05/23 11:04:27;;;;;;;2.30;1.20;;;;;;;21.18;83.53;100019.44;5018581;28;20476;-80
2022/05/23 11:07:24;;;;;;;3.22;1.20;;;;;;;21.21;83.56;100013.97;5022465;28;20433;-80
2022/05/23 11:10:07;;;;;;;2.97;1.30;;;;;;;21.42;82.93;100007.22;5002484;28;20453;-83
2022/05/23 11:12:43;;;;;;;2.33;1.10;;;;;;;21.47;81.87;100003.31;5019069;28;21792;-81
2022/05/23 11:15:29;;;;;;;2.93;1.20;;;;;;;21.38;81.94;99998.84;5009534;28;20447;-81
2022/05/23 11:18:06;;;;;;;2.90;1.13;;;;;;;21.51;86.60;99995.88;5004959;28;20438;-82
2022/05/23 11:20:42;;;;;;;2.20;1.05;;;;;;;21.51;79.21;99993.91;5018836;28;20440;-81
2022/05/23 11:23:24;;;;;;;2.35;1.20;;;;;;;21.80;83.21;99982.50;5016552;28;20483;-81
2022/05/23 11:25:57;;;;;;;2.77;1.17;;;;;;;21.85;83.76;99974.66;5017867;28;20448;-81
2022/05/23 11:34:22;;;;;;;1.88;1.00;;;;;;;21.86;77.50;99964.38;5028998;28;20425;-82
2022/05/23 11:37:01;;;;;;;3.10;1.10;;;;;;;21.77;70.03;99950.81;5026200;28;20453;-81
2022/05/23 11:39:48;;;;;;;2.97;1.10;;;;;;;21.72;83.73;99951.94;5018802;28;20433;-82
2022/05/23 11:42:31;;;;;;;1.90;1.05;;;;;;;21.80;90.95;99957.56;5005091;28;20441;-80
2022/05/23 11:48:47;;;;;;;1.75;1.02;;;;;;;21.72;82.37;99931.75;5019103;28;20441;-82
2022/05/23 11:51:38;;;;;;;2.30;1.10;;;;;;;21.81;75.67;99939.78;5000165;28;21222;-83
2022/05/23 11:54:29;;;;;;;1.98;1.02;;;;;;;22.11;88.45;99941.75;5006425;28;20771;-81
2022/05/23 11:57:31;;;;;;;5.93;1.50;;;;;;;21.86;66.97;99936.69;5018170;28;20425;-83
2022/05/23 12:00:06;;;;;;;3.58;1.30;;;;;;;21.82;65.77;99947.72;4997843;28;20438;-82
2022/05/23 12:03:17;;;;;;;2.20;1.10;;;;;;;21.81;69.70;99939.78;5022349;28;20428;-81
2022/05/23 12:06:15;;;;;;;2.88;1.23;;;;;;;21.79;80.44;99928.28;5022415;28;20810;-81
2022/05/23 12:09:00;;;;;;;2.75;1.10;;;;;;;21.94;83.53;99923.72;5021610;28;20441;-81
2022/05/23 12:11:37;;;;;;;2.20;1.10;;;;;;;21.57;74.54;99920.47;5019172;28;20425;-82
2022/05/23 12:14:17;;;;;;;1.65;0.90;;;;;;;21.77;65.38;99900.97;5014668;28;20429;-81
2022/05/23 12:17:05;;;;;;;1.77;1.02;;;;;;;21.58;65.55;99901.88;5021477;28;20433;-81
2022/05/23 12:19:54;;;;;;;1.90;1.10;;;;;;;21.28;53.81;99886.00;5007336;28;20434;-82
2022/05/23 12:22:33;;;;;;;2.05;1.00;;;;;;;21.46;76.32;99889.03;4996877;28;20433;-83
2022/05/23 12:25:26;;;;;;;2.05;1.00;;;;;;;21.66;82.54;99883.41;5018325;28;20417;-81
2022/05/23 12:28:08;;;;;;;2.67;1.05;;;;;;;21.90;63.97;99882.13;5016767;28;20439;-82
2022/05/23 12:31:05;;;;;;;1.95;0.90;;;;;;;21.97;85.22;99878.66;5023326;28;20440;-82
2022/05/23 12:33:48;;;;;;;1.70;1.05;;;;;;;21.94;68.58;99874.66;5024384;28;20437;-80
2022/05/23 12:36:26;;;;;;;1.48;0.90;;;;;;;22.22;68.76;99874.22;5014239;28;20432;-81
2022/05/23 12:39:17;;;;;;;2.10;1.20;;;;;;;22.13;67.11;99876.47;5017484;28;20429;-81
2022/05/23 12:42:01;;;;;;;2.13;1.08;;;;;;;22.04;50.65;99876.78;5021352;28;20429;-84
2022/05/23 12:44:54;;;;;;;3.05;1.10;;;;;;;22.23;64.07;99870.28;5006821;28;20433;-82
2022/05/23 12:47:54;;;;;;;2.53;1.10;;;;;;;22.27;63.29;99869.50;5026480;28;21233;-83
2022/05/23 12:50:41;;;;;;;1.35;0.95;;;;;;;22.52;77.64;99861.47;4998419;28;20441;-83
2022/05/23 12:53:33;;;;;;;2.97;1.20;;;;;;;22.54;60.45;99859.91;5001508;28;20456;-82
2022/05/23 12:56:18;;;;;;;2.90;1.10;;;;;;;22.43;66.95;99847.94;4998486;28;20433;-82
2022/05/23 12:59:20;;;;;;;1.83;1.00;;;;;;;22.35;57.99;99849.03;5024110;28;20425;-82
2022/05/23 13:02:02;;;;;;;3.10;1.20;;;;;;;22.29;65.09;99845.78;5002469;28;20459;-82
2022/05/23 13:04:45;;;;;;;2.03;1.00;;;;;;;22.16;68.29;99838.91;5020789;28;20429;-79
2022/05/23 13:07:24;;;;;;;2.65;1.10;;;;;;;22.14;75.16;99832.91;5000520;28;20433;-83
2022/05/23 13:10:01;;;;;;;2.53;1.13;;;;;;;21.90;75.98;99837.81;5017957;28;20465;-83
2022/05/23 13:12:38;;;;;;;1.83;1.00;;;;;;;21.78;76.66;99838.06;5027110;28;20444;-80
2022/05/23 13:15:23;;;;;;;2.90;1.05;;;;;;;21.90;75.61;99835.84;5027721;28;20493;-80